createdAt,value
2017-10-10T00:00:02.023Z,0
2017-10-10T00:01:10.858Z,0
2017-10-10T00:02:19.687Z,0
2017-10-10T00:03:28.859Z,0
2017-10-10T00:04:37.697Z,0
2017-10-10T00:05:46.526Z,0
2017-10-10T00:06:55.354Z,0
2017-10-10T00:08:04.190Z,0
2017-10-10T00:09:13.022Z,0
2017-10-10T00:10:21.856Z,0
2017-10-10T00:11:30.687Z,0
2017-10-10T00:12:39.519Z,0
2017-10-10T00:13:48.346Z,0
2017-10-10T00:14:57.181Z,0
2017-10-10T00:16:06.016Z,0
2017-10-10T00:17:14.848Z,0
2017-10-10T00:18:23.677Z,0
2017-10-10T00:19:32.508Z,0
2017-10-10T00:20:41.337Z,0
2017-10-10T00:21:50.171Z,0
2017-10-10T00:22:59.011Z,0
2017-10-10T00:24:07.835Z,0
2017-10-10T00:25:16.663Z,0
2017-10-10T00:26:25.495Z,0
2017-10-10T00:27:34.329Z,0
2017-10-10T00:28:43.162Z,0
2017-10-10T00:29:52.000Z,0
2017-10-10T00:31:00.830Z,0
2017-10-10T00:32:09.648Z,0
2017-10-10T00:33:18.479Z,0
2017-10-10T00:34:27.316Z,0
2017-10-10T00:35:36.487Z,0
2017-10-10T00:36:45.319Z,0
2017-10-10T00:37:54.151Z,0
2017-10-10T00:39:02.979Z,0
2017-10-10T00:40:11.813Z,0
2017-10-10T00:41:20.647Z,0
2017-10-10T00:42:29.480Z,0
2017-10-10T00:43:38.312Z,0
2017-10-10T00:44:47.137Z,0
2017-10-10T00:45:55.969Z,0
2017-10-10T00:47:04.806Z,0
2017-10-10T00:48:13.635Z,0
2017-10-10T00:49:22.469Z,0
2017-10-10T00:50:31.301Z,0
2017-10-10T00:51:40.128Z,0
2017-10-10T00:52:48.962Z,0
2017-10-10T00:53:58.130Z,0
2017-10-10T00:55:06.957Z,0
2017-10-10T00:56:15.790Z,0
2017-10-10T00:57:24.619Z,0
2017-10-10T00:58:33.454Z,0
2017-10-10T00:59:42.285Z,0
2017-10-10T01:00:51.453Z,0
2017-10-10T01:02:00.283Z,0
2017-10-10T01:03:09.125Z,0
2017-10-10T01:04:17.944Z,0
2017-10-10T01:05:26.773Z,0
2017-10-10T01:06:35.609Z,0
2017-10-10T01:07:44.784Z,0
2017-10-10T01:08:53.611Z,0
2017-10-10T01:10:02.446Z,0
2017-10-10T01:11:11.276Z,0
2017-10-10T01:12:20.109Z,0
2017-10-10T01:13:28.936Z,0
2017-10-10T01:14:37.766Z,0
2017-10-10T01:15:46.601Z,0
2017-10-10T01:16:55.434Z,0
2017-10-10T01:18:04.264Z,0
2017-10-10T01:19:13.091Z,0
2017-10-10T01:20:21.919Z,0
2017-10-10T01:21:30.749Z,0
2017-10-10T01:22:39.586Z,0
2017-10-10T01:23:48.416Z,0
2017-10-10T01:24:57.247Z,0
2017-10-10T01:26:06.076Z,0
2017-10-10T01:27:14.901Z,0
2017-10-10T01:28:23.734Z,0
2017-10-10T01:29:32.566Z,0
2017-10-10T01:30:41.400Z,0
2017-10-10T01:31:50.230Z,0
2017-10-10T01:32:59.061Z,0
2017-10-10T01:34:07.892Z,0
2017-10-10T01:35:16.724Z,0
2017-10-10T01:36:25.555Z,0
2017-10-10T01:37:34.388Z,0
2017-10-10T01:38:43.220Z,0
2017-10-10T01:39:52.051Z,0
2017-10-10T01:41:00.883Z,0
2017-10-10T01:42:09.716Z,0
2017-10-10T01:43:18.547Z,0
2017-10-10T01:44:27.377Z,0
2017-10-10T01:45:36.212Z,0
2017-10-10T01:46:45.041Z,0
2017-10-10T01:47:53.878Z,0
2017-10-10T01:49:02.711Z,0
2017-10-10T01:50:11.538Z,0
2017-10-10T01:51:20.372Z,0
2017-10-10T01:52:29.203Z,0
2017-10-10T01:53:38.035Z,0
2017-10-10T01:54:46.862Z,0
2017-10-10T01:55:55.693Z,0
2017-10-10T01:57:04.522Z,0
2017-10-10T01:58:13.353Z,0
2017-10-10T01:59:22.187Z,0
2017-10-10T02:00:31.024Z,0
2017-10-10T02:01:39.861Z,0
2017-10-10T02:02:48.685Z,0
2017-10-10T02:03:57.514Z,0
2017-10-10T02:05:06.347Z,0
2017-10-10T02:06:15.183Z,0
2017-10-10T02:07:24.010Z,0
2017-10-10T02:08:32.841Z,0
2017-10-10T02:09:41.675Z,0
2017-10-10T02:10:50.505Z,0
2017-10-10T02:11:59.337Z,0
2017-10-10T02:13:08.172Z,0
2017-10-10T02:14:17.007Z,0
2017-10-10T02:15:25.832Z,0
2017-10-10T02:16:34.667Z,0
2017-10-10T02:17:43.500Z,0
2017-10-10T02:18:52.334Z,0
2017-10-10T02:20:01.162Z,0
2017-10-10T02:21:09.993Z,0
2017-10-10T02:22:18.823Z,0
2017-10-10T02:23:27.653Z,0
2017-10-10T02:24:36.481Z,0
2017-10-10T02:25:45.316Z,0
2017-10-10T02:26:54.147Z,0
2017-10-10T02:28:02.975Z,0
2017-10-10T02:29:11.801Z,0
2017-10-10T02:30:20.638Z,0
2017-10-10T02:31:29.817Z,0
2017-10-10T02:32:38.653Z,0
2017-10-10T02:33:47.484Z,0
2017-10-10T02:34:56.650Z,0
2017-10-10T02:36:05.480Z,0
2017-10-10T02:37:14.316Z,0
2017-10-10T02:38:23.145Z,0
2017-10-10T02:39:32.311Z,0
2017-10-10T02:40:41.144Z,0
2017-10-10T02:41:49.969Z,0
2017-10-10T02:42:58.800Z,0
2017-10-10T02:44:07.973Z,0
2017-10-10T02:45:16.800Z,0
2017-10-10T02:46:25.632Z,0
2017-10-10T02:47:34.461Z,0
2017-10-10T02:48:43.294Z,0
2017-10-10T02:49:52.460Z,0
2017-10-10T02:51:01.295Z,0
2017-10-10T02:52:10.126Z,0
2017-10-10T02:53:18.958Z,0
2017-10-10T02:54:27.793Z,0
2017-10-10T02:55:36.620Z,0
2017-10-10T02:56:45.451Z,0
2017-10-10T02:57:54.283Z,0
2017-10-10T02:59:03.114Z,0
2017-10-10T03:00:11.948Z,0
2017-10-10T03:01:20.777Z,0
2017-10-10T03:02:29.612Z,0
2017-10-10T03:03:38.440Z,0
2017-10-10T03:04:47.274Z,0
2017-10-10T03:05:56.102Z,0
2017-10-10T03:07:04.935Z,0
2017-10-10T03:08:13.766Z,0
2017-10-10T03:09:22.595Z,0
2017-10-10T03:10:31.421Z,0
2017-10-10T03:11:40.252Z,0
2017-10-10T03:12:49.087Z,0
2017-10-10T03:13:57.916Z,0
2017-10-10T03:15:06.751Z,0
2017-10-10T03:16:15.581Z,0
2017-10-10T03:17:24.407Z,0
2017-10-10T03:18:33.241Z,0
2017-10-10T03:19:42.074Z,0
2017-10-10T03:20:50.906Z,0
2017-10-10T03:21:59.736Z,0
2017-10-10T03:23:08.566Z,0
2017-10-10T03:24:17.397Z,0
2017-10-10T03:25:26.227Z,0
2017-10-10T03:26:35.400Z,0
2017-10-10T03:27:44.231Z,0
2017-10-10T03:28:53.062Z,0
2017-10-10T03:30:01.891Z,0
2017-10-10T03:31:10.725Z,0
2017-10-10T03:32:19.558Z,0
2017-10-10T03:33:28.387Z,0
2017-10-10T03:34:37.218Z,0
2017-10-10T03:35:46.046Z,0
2017-10-10T03:36:54.879Z,0
2017-10-10T03:38:03.709Z,0
2017-10-10T03:39:12.545Z,0
2017-10-10T03:40:21.372Z,0
2017-10-10T03:41:30.206Z,0
2017-10-10T03:42:39.036Z,0
2017-10-10T03:43:47.867Z,0
2017-10-10T03:44:57.045Z,0
2017-10-10T03:46:05.880Z,0
2017-10-10T03:47:14.715Z,0
2017-10-10T03:48:23.552Z,0
2017-10-10T03:49:32.384Z,0
2017-10-10T03:50:41.221Z,0
2017-10-10T03:51:50.054Z,0
2017-10-10T03:52:58.896Z,0
2017-10-10T03:54:07.731Z,0
2017-10-10T03:55:16.563Z,0
2017-10-10T03:56:25.397Z,0
2017-10-10T03:57:34.234Z,0
2017-10-10T03:58:43.069Z,0
2017-10-10T03:59:51.908Z,0
2017-10-10T04:01:00.742Z,0
2017-10-10T04:02:09.920Z,0
2017-10-10T04:03:18.752Z,0
2017-10-10T04:04:27.594Z,0
2017-10-10T04:05:36.434Z,0
2017-10-10T04:06:45.267Z,0
2017-10-10T04:07:54.099Z,0
2017-10-10T04:09:02.931Z,0
2017-10-10T04:10:11.773Z,0
2017-10-10T04:11:20.604Z,0
2017-10-10T04:12:29.444Z,0
2017-10-10T04:13:38.278Z,0
2017-10-10T04:14:47.112Z,0
2017-10-10T04:15:55.950Z,0
2017-10-10T04:17:04.783Z,0
2017-10-10T04:18:13.625Z,0
2017-10-10T04:19:22.458Z,0
2017-10-10T04:20:31.291Z,0
2017-10-10T04:21:40.126Z,0
2017-10-10T04:22:48.965Z,0
2017-10-10T04:23:57.802Z,0
2017-10-10T04:25:06.640Z,0
2017-10-10T04:26:15.472Z,0
2017-10-10T04:27:24.306Z,0
2017-10-10T04:28:33.141Z,0
2017-10-10T04:29:41.986Z,0
2017-10-10T04:30:50.813Z,0
2017-10-10T04:31:59.654Z,0
2017-10-10T04:33:08.488Z,0
2017-10-10T04:34:17.323Z,0
2017-10-10T04:35:26.163Z,0
2017-10-10T04:36:35.001Z,0
2017-10-10T04:37:43.836Z,0
2017-10-10T04:38:52.671Z,0
2017-10-10T04:40:01.509Z,0
2017-10-10T04:41:10.685Z,0
2017-10-10T04:42:19.524Z,0
2017-10-10T04:43:29.070Z,0
2017-10-10T04:44:37.903Z,0
2017-10-10T04:45:46.741Z,0
2017-10-10T04:46:55.576Z,0
2017-10-10T04:48:04.411Z,0
2017-10-10T04:49:13.248Z,0
2017-10-10T04:50:22.084Z,0
2017-10-10T04:51:30.917Z,0
2017-10-10T04:52:39.750Z,0
2017-10-10T04:53:48.592Z,0
2017-10-10T04:54:57.428Z,0
2017-10-10T04:56:06.260Z,0
2017-10-10T04:57:15.097Z,0
2017-10-10T04:58:23.935Z,0
2017-10-10T04:59:32.770Z,0
2017-10-10T05:00:41.606Z,0
2017-10-10T05:01:50.440Z,0
2017-10-10T05:02:59.272Z,0
2017-10-10T05:04:08.109Z,4
2017-10-10T05:05:16.946Z,0
2017-10-10T05:06:25.781Z,4
2017-10-10T05:07:34.623Z,4
2017-10-10T05:08:43.455Z,0
2017-10-10T05:09:52.286Z,4
2017-10-10T05:11:01.128Z,4
2017-10-10T05:12:09.961Z,4
2017-10-10T05:13:18.804Z,4
2017-10-10T05:14:27.636Z,4
2017-10-10T05:15:36.474Z,4
2017-10-10T05:16:45.302Z,8
2017-10-10T05:17:54.141Z,8
2017-10-10T05:19:02.982Z,8
2017-10-10T05:20:11.816Z,12
2017-10-10T05:21:20.703Z,12
2017-10-10T05:22:29.534Z,12
2017-10-10T05:23:38.371Z,12
2017-10-10T05:24:47.214Z,16
2017-10-10T05:25:56.396Z,20
2017-10-10T05:27:05.227Z,16
2017-10-10T05:28:14.060Z,20
2017-10-10T05:29:22.893Z,20
2017-10-10T05:30:31.737Z,24
2017-10-10T05:31:40.917Z,24
2017-10-10T05:32:49.745Z,28
2017-10-10T05:33:58.582Z,32
2017-10-10T05:35:07.420Z,36
2017-10-10T05:36:16.252Z,36
2017-10-10T05:37:25.098Z,36
2017-10-10T05:38:33.935Z,44
2017-10-10T05:39:43.110Z,36
2017-10-10T05:40:51.938Z,40
2017-10-10T05:42:00.773Z,36
2017-10-10T05:43:09.610Z,36
2017-10-10T05:44:18.788Z,40
2017-10-10T05:45:27.621Z,44
2017-10-10T05:46:36.456Z,44
2017-10-10T05:47:45.292Z,44
2017-10-10T05:48:54.125Z,48
2017-10-10T05:50:02.973Z,52
2017-10-10T05:51:11.805Z,56
2017-10-10T05:52:20.636Z,60
2017-10-10T05:53:29.470Z,60
2017-10-10T05:54:38.308Z,64
2017-10-10T05:55:47.147Z,72
2017-10-10T05:56:55.984Z,80
2017-10-10T05:58:05.162Z,84
2017-10-10T05:59:13.992Z,84
2017-10-10T06:00:23.163Z,88
2017-10-10T06:01:31.994Z,92
2017-10-10T06:02:40.832Z,92
2017-10-10T06:03:49.668Z,100
2017-10-10T06:04:58.508Z,100
2017-10-10T06:06:07.338Z,104
2017-10-10T06:07:16.172Z,116
2017-10-10T06:08:25.012Z,124
2017-10-10T06:09:33.845Z,132
2017-10-10T06:10:42.681Z,144
2017-10-10T06:11:51.544Z,144
2017-10-10T06:13:00.352Z,144
2017-10-10T06:14:09.188Z,152
2017-10-10T06:15:18.020Z,152
2017-10-10T06:16:26.859Z,156
2017-10-10T06:17:35.694Z,140
2017-10-10T06:18:44.532Z,152
2017-10-10T06:19:53.364Z,152
2017-10-10T06:21:02.202Z,144
2017-10-10T06:22:11.038Z,128
2017-10-10T06:23:19.873Z,148
2017-10-10T06:24:28.703Z,136
2017-10-10T06:25:37.540Z,128
2017-10-10T06:26:46.380Z,124
2017-10-10T06:27:55.219Z,112
2017-10-10T06:29:04.053Z,124
2017-10-10T06:30:12.890Z,124
2017-10-10T06:31:21.726Z,140
2017-10-10T06:32:30.906Z,152
2017-10-10T06:33:40.082Z,168
2017-10-10T06:34:48.916Z,180
2017-10-10T06:35:57.752Z,192
2017-10-10T06:37:06.588Z,208
2017-10-10T06:38:15.429Z,232
2017-10-10T06:39:24.602Z,244
2017-10-10T06:40:33.436Z,248
2017-10-10T06:41:42.268Z,252
2017-10-10T06:42:51.454Z,264
2017-10-10T06:44:00.292Z,264
2017-10-10T06:45:09.128Z,248
2017-10-10T06:46:17.968Z,224
2017-10-10T06:47:26.801Z,208
2017-10-10T06:48:35.636Z,204
2017-10-10T06:49:44.474Z,184
2017-10-10T06:50:53.649Z,164
2017-10-10T06:52:02.486Z,152
2017-10-10T06:53:11.318Z,148
2017-10-10T06:54:20.495Z,168
2017-10-10T06:55:29.332Z,184
2017-10-10T06:56:38.169Z,208
2017-10-10T06:57:47.010Z,224
2017-10-10T06:58:55.842Z,228
2017-10-10T07:00:04.684Z,224
2017-10-10T07:01:13.513Z,216
2017-10-10T07:02:22.351Z,204
2017-10-10T07:03:31.528Z,208
2017-10-10T07:04:40.364Z,228
2017-10-10T07:05:49.199Z,252
2017-10-10T07:06:58.033Z,272
2017-10-10T07:08:06.869Z,284
2017-10-10T07:09:15.712Z,300
2017-10-10T07:10:24.548Z,312
2017-10-10T07:11:33.385Z,336
2017-10-10T07:12:42.215Z,336
2017-10-10T07:13:51.055Z,360
2017-10-10T07:14:59.895Z,348
2017-10-10T07:16:08.737Z,332
2017-10-10T07:17:17.568Z,336
2017-10-10T07:18:26.405Z,356
2017-10-10T07:19:35.243Z,392
2017-10-10T07:20:44.083Z,444
2017-10-10T07:21:52.916Z,492
2017-10-10T07:23:01.746Z,520
2017-10-10T07:24:10.597Z,544
2017-10-10T07:25:19.421Z,524
2017-10-10T07:26:28.261Z,520
2017-10-10T07:27:37.101Z,504
2017-10-10T07:28:45.935Z,492
2017-10-10T07:29:54.770Z,484
2017-10-10T07:31:03.607Z,480
2017-10-10T07:32:12.474Z,460
2017-10-10T07:33:21.278Z,436
2017-10-10T07:34:30.118Z,408
2017-10-10T07:35:38.949Z,396
2017-10-10T07:36:47.786Z,392
2017-10-10T07:37:56.964Z,396
2017-10-10T07:39:05.796Z,428
2017-10-10T07:40:14.632Z,472
2017-10-10T07:41:23.468Z,476
2017-10-10T07:42:32.306Z,460
2017-10-10T07:43:41.137Z,448
2017-10-10T07:44:49.977Z,436
2017-10-10T07:45:58.816Z,432
2017-10-10T07:47:07.651Z,416
2017-10-10T07:48:16.485Z,396
2017-10-10T07:49:25.329Z,396
2017-10-10T07:50:34.154Z,384
2017-10-10T07:51:42.986Z,384
2017-10-10T07:52:51.818Z,388
2017-10-10T07:54:00.656Z,356
2017-10-10T07:55:09.830Z,352
2017-10-10T07:56:18.666Z,344
2017-10-10T07:57:27.500Z,352
2017-10-10T07:58:36.342Z,356
2017-10-10T07:59:45.175Z,364
2017-10-10T08:00:54.008Z,384
2017-10-10T08:02:02.844Z,400
2017-10-10T08:03:11.683Z,440
2017-10-10T08:04:20.522Z,492
2017-10-10T08:05:29.363Z,520
2017-10-10T08:06:38.207Z,616
2017-10-10T08:07:47.041Z,728
2017-10-10T08:08:55.875Z,784
2017-10-10T08:10:04.711Z,884
2017-10-10T08:11:13.545Z,1008
2017-10-10T08:12:22.380Z,1032
2017-10-10T08:13:31.216Z,992
2017-10-10T08:14:40.055Z,840
2017-10-10T08:15:48.893Z,768
2017-10-10T08:16:57.731Z,784
2017-10-10T08:18:06.564Z,776
2017-10-10T08:19:15.406Z,724
2017-10-10T08:20:24.242Z,820
2017-10-10T08:21:33.078Z,800
2017-10-10T08:22:41.912Z,788
2017-10-10T08:23:50.750Z,756
2017-10-10T08:24:59.585Z,692
2017-10-10T08:26:08.423Z,700
2017-10-10T08:27:17.261Z,680
2017-10-10T08:28:26.097Z,636
2017-10-10T08:29:34.940Z,756
2017-10-10T08:30:43.775Z,852
2017-10-10T08:31:52.611Z,700
2017-10-10T08:33:01.782Z,820
2017-10-10T08:34:10.623Z,624
2017-10-10T08:35:19.796Z,656
2017-10-10T08:36:28.632Z,816
2017-10-10T08:37:37.470Z,824
2017-10-10T08:38:46.307Z,644
2017-10-10T08:39:55.140Z,772
2017-10-10T08:41:03.974Z,1208
2017-10-10T08:42:12.820Z,856
2017-10-10T08:43:21.643Z,636
2017-10-10T08:44:30.484Z,768
2017-10-10T08:45:39.316Z,704
2017-10-10T08:46:48.161Z,732
2017-10-10T08:47:57.000Z,544
2017-10-10T08:49:05.832Z,476
2017-10-10T08:50:14.668Z,536
2017-10-10T08:51:23.506Z,532
2017-10-10T08:52:32.339Z,572
2017-10-10T08:53:41.182Z,440
2017-10-10T08:54:50.014Z,420
2017-10-10T08:55:58.862Z,616
2017-10-10T08:57:07.683Z,720
2017-10-10T08:58:16.524Z,656
2017-10-10T08:59:25.378Z,696
2017-10-10T09:00:34.570Z,760
2017-10-10T09:01:43.407Z,724
2017-10-10T09:02:52.240Z,716
2017-10-10T09:04:01.078Z,940
2017-10-10T09:05:09.927Z,932
2017-10-10T09:06:18.769Z,1432
2017-10-10T09:07:27.596Z,1604
2017-10-10T09:08:36.433Z,1252
2017-10-10T09:09:45.273Z,972
2017-10-10T09:10:54.442Z,756
2017-10-10T09:12:03.616Z,840
2017-10-10T09:13:12.449Z,632
2017-10-10T09:14:21.282Z,708
2017-10-10T09:15:30.458Z,688
2017-10-10T09:16:39.296Z,744
2017-10-10T09:17:48.133Z,896
2017-10-10T09:18:57.308Z,904
2017-10-10T09:20:06.142Z,1080
2017-10-10T09:21:14.983Z,948
2017-10-10T09:22:23.817Z,880
2017-10-10T09:23:32.659Z,716
2017-10-10T09:24:41.499Z,736
2017-10-10T09:25:50.333Z,920
2017-10-10T09:26:59.169Z,820
2017-10-10T09:28:08.010Z,832
2017-10-10T09:29:16.845Z,648
2017-10-10T09:30:25.686Z,520
2017-10-10T09:31:34.523Z,416
2017-10-10T09:32:43.361Z,412
2017-10-10T09:33:52.215Z,440
2017-10-10T09:35:01.037Z,464
2017-10-10T09:36:09.872Z,604
2017-10-10T09:37:18.713Z,672
2017-10-10T09:38:27.547Z,688
2017-10-10T09:39:36.383Z,688
2017-10-10T09:40:45.216Z,748
2017-10-10T09:41:54.058Z,732
2017-10-10T09:43:02.897Z,664
2017-10-10T09:44:11.732Z,680
2017-10-10T09:45:20.571Z,600
2017-10-10T09:46:29.408Z,620
2017-10-10T09:47:38.243Z,724
2017-10-10T09:48:47.087Z,824
2017-10-10T09:49:55.921Z,816
2017-10-10T09:51:04.754Z,732
2017-10-10T09:52:13.597Z,700
2017-10-10T09:53:22.436Z,648
2017-10-10T09:54:31.274Z,816
2017-10-10T09:55:40.114Z,696
2017-10-10T09:56:48.950Z,704
2017-10-10T09:57:57.782Z,660
2017-10-10T09:59:06.620Z,644
2017-10-10T10:00:15.455Z,684
2017-10-10T10:01:24.291Z,560
2017-10-10T10:02:33.130Z,544
2017-10-10T10:03:41.965Z,580
2017-10-10T10:04:50.805Z,712
2017-10-10T10:05:59.642Z,772
2017-10-10T10:07:08.477Z,708
2017-10-10T10:08:17.310Z,824
2017-10-10T10:09:26.150Z,736
2017-10-10T10:10:34.990Z,596
2017-10-10T10:11:43.828Z,652
2017-10-10T10:12:52.666Z,552
2017-10-10T10:14:01.503Z,600
2017-10-10T10:15:10.340Z,480
2017-10-10T10:16:19.179Z,496
2017-10-10T10:17:28.015Z,496
2017-10-10T10:18:36.854Z,756
2017-10-10T10:19:45.696Z,836
2017-10-10T10:20:54.540Z,1368
2017-10-10T10:22:03.370Z,1012
2017-10-10T10:23:12.208Z,972
2017-10-10T10:24:21.045Z,960
2017-10-10T10:25:29.881Z,1068
2017-10-10T10:26:38.715Z,828
2017-10-10T10:27:47.554Z,652
2017-10-10T10:28:56.389Z,764
2017-10-10T10:30:05.226Z,788
2017-10-10T10:31:14.071Z,992
2017-10-10T10:32:22.914Z,872
2017-10-10T10:33:32.078Z,776
2017-10-10T10:34:40.919Z,1216
2017-10-10T10:35:49.751Z,912
2017-10-10T10:36:58.602Z,820
2017-10-10T10:38:07.433Z,744
2017-10-10T10:39:16.265Z,860
2017-10-10T10:40:25.100Z,1244
2017-10-10T10:41:33.939Z,848
2017-10-10T10:42:42.779Z,1260
2017-10-10T10:43:51.617Z,732
2017-10-10T10:45:00.795Z,636
2017-10-10T10:46:09.631Z,676
2017-10-10T10:47:18.460Z,984
2017-10-10T10:48:27.302Z,1036
2017-10-10T10:49:36.145Z,868
2017-10-10T10:50:44.982Z,676
2017-10-10T10:51:53.819Z,668
2017-10-10T10:53:02.988Z,1008
2017-10-10T10:54:11.827Z,756
2017-10-10T10:55:20.672Z,636
2017-10-10T10:56:29.510Z,628
2017-10-10T10:57:38.353Z,624
2017-10-10T10:58:47.192Z,696
2017-10-10T10:59:56.024Z,636
2017-10-10T11:01:04.865Z,560
2017-10-10T11:02:13.705Z,680
2017-10-10T11:03:22.539Z,572
2017-10-10T11:04:31.374Z,632
2017-10-10T11:05:40.211Z,484
2017-10-10T11:06:49.051Z,664
2017-10-10T11:07:57.888Z,788
2017-10-10T11:09:06.724Z,704
2017-10-10T11:10:15.563Z,800
2017-10-10T11:11:24.405Z,492
2017-10-10T11:12:33.238Z,484
2017-10-10T11:13:42.071Z,384
2017-10-10T11:14:50.913Z,388
2017-10-10T11:15:59.753Z,416
2017-10-10T11:17:08.591Z,616
2017-10-10T11:18:17.423Z,832
2017-10-10T11:19:26.263Z,1064
2017-10-10T11:20:35.099Z,1040
2017-10-10T11:21:43.940Z,820
2017-10-10T11:22:53.119Z,1104
2017-10-10T11:24:01.963Z,596
2017-10-10T11:25:10.794Z,644
2017-10-10T11:26:19.634Z,712
2017-10-10T11:27:28.474Z,628
2017-10-10T11:28:37.311Z,552
2017-10-10T11:29:46.149Z,556
2017-10-10T11:30:54.987Z,924
2017-10-10T11:32:03.824Z,700
2017-10-10T11:33:12.666Z,632
2017-10-10T11:34:21.501Z,944
2017-10-10T11:35:30.341Z,564
2017-10-10T11:36:39.174Z,480
2017-10-10T11:37:48.018Z,544
2017-10-10T11:38:56.852Z,764
2017-10-10T11:40:05.695Z,760
2017-10-10T11:41:14.867Z,724
2017-10-10T11:42:23.707Z,528
2017-10-10T11:43:32.547Z,484
2017-10-10T11:44:41.385Z,616
2017-10-10T11:45:50.224Z,548
2017-10-10T11:46:59.065Z,620
2017-10-10T11:48:07.904Z,768
2017-10-10T11:49:16.737Z,736
2017-10-10T11:50:25.579Z,492
2017-10-10T11:51:34.419Z,472
2017-10-10T11:52:43.256Z,588
2017-10-10T11:53:52.425Z,540
2017-10-10T11:55:01.262Z,440
2017-10-10T11:56:10.102Z,428
2017-10-10T11:57:18.955Z,572
2017-10-10T11:58:27.779Z,504
2017-10-10T11:59:36.616Z,684
2017-10-10T12:00:45.452Z,604
2017-10-10T12:01:54.296Z,616
2017-10-10T12:03:03.138Z,624
2017-10-10T12:04:11.973Z,600
2017-10-10T12:05:20.808Z,552
2017-10-10T12:06:29.644Z,440
2017-10-10T12:07:38.479Z,420
2017-10-10T12:08:47.320Z,488
2017-10-10T12:09:56.159Z,332
2017-10-10T12:11:04.995Z,420
2017-10-10T12:12:13.837Z,392
2017-10-10T12:13:22.670Z,412
2017-10-10T12:14:31.506Z,360
2017-10-10T12:15:40.348Z,504
2017-10-10T12:16:49.190Z,312
2017-10-10T12:17:58.024Z,336
2017-10-10T12:19:06.867Z,292
2017-10-10T12:20:15.699Z,348
2017-10-10T12:21:24.534Z,400
2017-10-10T12:22:33.376Z,316
2017-10-10T12:23:42.215Z,312
2017-10-10T12:24:51.050Z,408
2017-10-10T12:25:59.893Z,288
2017-10-10T12:27:08.731Z,224
2017-10-10T12:28:17.564Z,256
2017-10-10T12:29:26.404Z,332
2017-10-10T12:30:35.253Z,516
2017-10-10T12:31:44.081Z,380
2017-10-10T12:32:52.922Z,476
2017-10-10T12:34:01.753Z,696
2017-10-10T12:35:10.593Z,512
2017-10-10T12:36:19.433Z,636
2017-10-10T12:37:28.273Z,524
2017-10-10T12:38:37.110Z,352
2017-10-10T12:39:45.945Z,416
2017-10-10T12:40:54.784Z,384
2017-10-10T12:42:03.630Z,400
2017-10-10T12:43:12.464Z,552
2017-10-10T12:44:21.301Z,572
2017-10-10T12:45:30.144Z,588
2017-10-10T12:46:38.980Z,460
2017-10-10T12:47:47.827Z,448
2017-10-10T12:48:56.653Z,336
2017-10-10T12:50:05.488Z,396
2017-10-10T12:51:14.670Z,492
2017-10-10T12:52:23.514Z,524
2017-10-10T12:53:32.343Z,516
2017-10-10T12:54:41.179Z,388
2017-10-10T12:55:50.019Z,336
2017-10-10T12:56:58.854Z,384
2017-10-10T12:58:07.696Z,516
2017-10-10T12:59:16.539Z,428
2017-10-10T13:00:25.368Z,464
2017-10-10T13:01:34.209Z,472
2017-10-10T13:02:43.061Z,492
2017-10-10T13:03:51.886Z,472
2017-10-10T13:05:00.726Z,488
2017-10-10T13:06:09.561Z,476
2017-10-10T13:07:18.398Z,436
2017-10-10T13:08:27.239Z,620
2017-10-10T13:09:36.076Z,616
2017-10-10T13:10:44.917Z,640
2017-10-10T13:11:53.759Z,628
2017-10-10T13:13:02.594Z,740
2017-10-10T13:14:11.435Z,712
2017-10-10T13:15:20.268Z,636
2017-10-10T13:16:29.439Z,636
2017-10-10T13:17:38.284Z,604
2017-10-10T13:18:47.119Z,608
2017-10-10T13:19:55.960Z,552
2017-10-10T13:21:04.800Z,604
2017-10-10T13:22:13.641Z,584
2017-10-10T13:23:22.475Z,648
2017-10-10T13:24:31.317Z,540
2017-10-10T13:25:40.158Z,460
2017-10-10T13:26:48.997Z,536
2017-10-10T13:27:57.832Z,512
2017-10-10T13:29:06.665Z,456
2017-10-10T13:30:15.505Z,440
2017-10-10T13:31:24.343Z,348
2017-10-10T13:32:33.179Z,396
2017-10-10T13:33:42.020Z,392
2017-10-10T13:34:50.881Z,352
2017-10-10T13:35:59.692Z,408
2017-10-10T13:37:08.533Z,324
2017-10-10T13:38:17.381Z,340
2017-10-10T13:39:26.215Z,276
2017-10-10T13:40:35.060Z,292
2017-10-10T13:41:43.890Z,228
2017-10-10T13:42:52.732Z,232
2017-10-10T13:44:01.566Z,244
2017-10-10T13:45:10.402Z,228
2017-10-10T13:46:19.248Z,172
2017-10-10T13:47:28.086Z,208
2017-10-10T13:48:36.932Z,176
2017-10-10T13:49:45.771Z,200
2017-10-10T13:50:54.620Z,188
2017-10-10T13:52:03.785Z,224
2017-10-10T13:53:12.959Z,228
2017-10-10T13:54:21.790Z,200
2017-10-10T13:55:30.637Z,256
2017-10-10T13:56:39.475Z,204
2017-10-10T13:57:48.308Z,192
2017-10-10T13:58:57.146Z,228
2017-10-10T14:00:05.987Z,172
2017-10-10T14:01:14.824Z,152
2017-10-10T14:02:23.665Z,136
2017-10-10T14:03:32.501Z,160
2017-10-10T14:04:41.341Z,140
2017-10-10T14:05:50.178Z,168
2017-10-10T14:06:59.025Z,152
2017-10-10T14:08:07.860Z,156
2017-10-10T14:09:16.702Z,188
2017-10-10T14:10:25.532Z,228
2017-10-10T14:11:34.368Z,196
2017-10-10T14:12:43.213Z,180
2017-10-10T14:13:52.050Z,116
2017-10-10T14:15:00.891Z,128
2017-10-10T14:16:09.725Z,124
2017-10-10T14:17:18.560Z,148
2017-10-10T14:18:27.737Z,152
2017-10-10T14:19:36.585Z,172
2017-10-10T14:20:45.763Z,132
2017-10-10T14:21:54.607Z,120
2017-10-10T14:23:03.446Z,128
2017-10-10T14:24:12.288Z,144
2017-10-10T14:25:21.119Z,140
2017-10-10T14:26:29.959Z,92
2017-10-10T14:27:38.804Z,140
2017-10-10T14:28:47.640Z,212
2017-10-10T14:29:56.482Z,160
2017-10-10T14:31:05.319Z,184
2017-10-10T14:32:14.168Z,204
2017-10-10T14:33:23.007Z,152
2017-10-10T14:34:31.843Z,188
2017-10-10T14:35:40.686Z,236
2017-10-10T14:36:49.514Z,316
2017-10-10T14:37:58.357Z,332
2017-10-10T14:39:07.191Z,244
2017-10-10T14:40:16.032Z,192
2017-10-10T14:41:24.875Z,208
2017-10-10T14:42:33.705Z,228
2017-10-10T14:43:42.549Z,220
2017-10-10T14:44:51.722Z,256
2017-10-10T14:46:00.563Z,268
2017-10-10T14:47:09.401Z,212
2017-10-10T14:48:18.270Z,228
2017-10-10T14:49:27.073Z,224
2017-10-10T14:50:35.914Z,236
2017-10-10T14:51:44.753Z,268
2017-10-10T14:52:53.594Z,232
2017-10-10T14:54:02.434Z,232
2017-10-10T14:55:11.270Z,268
2017-10-10T14:56:20.104Z,320
2017-10-10T14:57:28.951Z,348
2017-10-10T14:58:37.786Z,404
2017-10-10T14:59:46.622Z,252
2017-10-10T15:00:55.461Z,352
2017-10-10T15:02:04.301Z,332
2017-10-10T15:03:13.138Z,436
2017-10-10T15:04:21.978Z,356
2017-10-10T15:05:31.150Z,444
2017-10-10T15:06:39.993Z,588
2017-10-10T15:07:48.827Z,380
2017-10-10T15:08:57.669Z,400
2017-10-10T15:10:06.508Z,328
2017-10-10T15:11:15.345Z,504
2017-10-10T15:12:24.185Z,304
2017-10-10T15:13:33.023Z,352
2017-10-10T15:14:41.859Z,300
2017-10-10T15:15:50.701Z,280
2017-10-10T15:16:59.537Z,200
2017-10-10T15:18:08.377Z,288
2017-10-10T15:19:17.213Z,212
2017-10-10T15:20:26.054Z,180
2017-10-10T15:21:34.892Z,128
2017-10-10T15:22:43.733Z,184
2017-10-10T15:23:52.579Z,144
2017-10-10T15:25:01.416Z,172
2017-10-10T15:26:10.256Z,124
2017-10-10T15:27:19.091Z,156
2017-10-10T15:28:27.930Z,140
2017-10-10T15:29:36.770Z,112
2017-10-10T15:30:45.609Z,100
2017-10-10T15:31:54.453Z,88
2017-10-10T15:33:03.625Z,92
2017-10-10T15:34:12.462Z,120
2017-10-10T15:35:21.303Z,92
2017-10-10T15:36:30.140Z,100
2017-10-10T15:37:38.980Z,96
2017-10-10T15:38:47.824Z,84
2017-10-10T15:39:56.661Z,136
2017-10-10T15:41:05.496Z,116
2017-10-10T15:42:14.341Z,92
2017-10-10T15:43:23.179Z,88
2017-10-10T15:44:32.018Z,120
2017-10-10T15:45:40.855Z,76
2017-10-10T15:46:49.692Z,96
2017-10-10T15:47:58.530Z,96
2017-10-10T15:49:07.367Z,112
2017-10-10T15:50:16.207Z,92
2017-10-10T15:51:25.047Z,84
2017-10-10T15:52:33.886Z,76
2017-10-10T15:53:42.719Z,88
2017-10-10T15:54:51.559Z,104
2017-10-10T15:56:00.399Z,80
2017-10-10T15:57:09.236Z,100
2017-10-10T15:58:18.414Z,84
2017-10-10T15:59:27.251Z,84
2017-10-10T16:00:36.091Z,60
2017-10-10T16:01:44.929Z,64
2017-10-10T16:02:53.766Z,68
2017-10-10T16:04:02.608Z,56
2017-10-10T16:05:11.444Z,52
2017-10-10T16:06:20.284Z,56
2017-10-10T16:07:29.468Z,48
2017-10-10T16:08:38.306Z,52
2017-10-10T16:09:47.143Z,40
2017-10-10T16:10:55.987Z,28